الصفحة الرئيسية
METAR-TAF:

METAR-TAF

مطار :

كارلسباد, نيومكسيكو, الولايات المتحدة

دائرة عرض: 32-20-15N, خط طول: 104-15-48W, ارتفاع: 1004 متر

مراقبة الطقس الحالي

تاريخ ووقت الإصدار 1ساعة و 0 دقيقة قبل الساعة 23:53UTC
ريح 11 عقدة من الغرب
درجة الحرارة 20°درجة مئوية
الرطوبة 35%
ضغط 1010 hPa
الرؤية: 16.1 كم
سماء صافية

METAR: KCNM 202353Z AUTO 26011KT 10SM CLR 20/04 A2982 RMK AO2 SLP059 T02000039 10239 20194 53015

زمن: 17:53 (00:53 UTC)

توقعات

تاريخ ووقت الإصدار 1ساعة و 18 دقيقة قبل الساعة 23:35UTC
التوقعات صالحة من21 الساعة 00 UTC إلى 21 الساعة 24 UTC
ريح 15 عقدة من الغرب/الجنوب الغربي تتزايد حتى 24 عقدة
الرؤية: 10 كم
غيوم قليلة على ارتفاع 25000 قدم
من 21 الساعة 0100 UTC
ريح 8 عقدة من الغرب/الجنوب الغربي
الرؤية: 10 كم
غيوم قليلة على ارتفاع 25000 قدم

TAF: KCNM 202335Z 2100/2124 25015G24KT P6SM FEW250 FM210100 24008KT P6SM FEW250

أرصاد الطقس والتوقعات من أكثر من 4000 مطار (تقارير الطقس للمطار METAR والتنبؤ بالطقس بالمطارTAF).

المحطات المتاحة هي النقط الصفراء والحمراء على الخريطة.

حرك المؤشر فوق النقطة لمعرفة اسم المحطة.

ثم انقر لمعرفة أرصاد وتوقعات الطقس.

لتغيير الخارطة: اضغط على الأزرار الخضراء مع رمز الصليب الأسود للتكبير. على الزر الأخضر مع شرطة للتصغير، أو على الأسهم الخضراء للخرائط المجاورة.


METAR-TAF: